createdAt,value
2018-12-25T00:00:12.916Z,102248.22
2018-12-25T00:02:47.106Z,102253.02
2018-12-25T00:05:21.085Z,102245.70
2018-12-25T00:07:55.274Z,102243.06
2018-12-25T00:10:29.422Z,102253.26
2018-12-25T00:13:03.898Z,102253.26
2018-12-25T00:15:37.731Z,102259.22
2018-12-25T00:18:11.704Z,102254.38
2018-12-25T00:20:45.931Z,102250.98
2018-12-25T00:23:19.861Z,102250.98
2018-12-25T00:25:53.911Z,102254.09
2018-12-25T00:28:29.208Z,102244.01
2018-12-25T00:31:04.364Z,102237.92
2018-12-25T00:33:38.507Z,102235.25
2018-12-25T00:36:12.740Z,102249.36
2018-12-25T00:38:46.659Z,102248.86
2018-12-25T00:41:22.167Z,102253.30
2018-12-25T00:43:56.624Z,102265.36
2018-12-25T00:46:30.821Z,102265.36
2018-12-25T00:49:04.840Z,102262.66
2018-12-25T00:51:38.771Z,102268.94
2018-12-25T00:54:12.934Z,102267.11
2018-12-25T00:56:47.138Z,102261.42
2018-12-25T00:59:21.592Z,102261.42
2018-12-25T01:01:55.413Z,102261.41
2018-12-25T01:04:29.948Z,102249.56
2018-12-25T01:07:05.126Z,102255.05
2018-12-25T01:09:39.450Z,102255.49
2018-12-25T01:12:13.412Z,102246.87
2018-12-25T01:14:48.553Z,102243.50
2018-12-25T01:17:22.643Z,102243.50
2018-12-25T01:19:56.913Z,102246.36
2018-12-25T01:22:32.517Z,102245.11
2018-12-25T01:25:06.603Z,102245.11
2018-12-25T01:27:40.942Z,102232.33
2018-12-25T01:30:15.148Z,102238.16
2018-12-25T01:32:49.225Z,102238.45
2018-12-25T01:35:23.444Z,102238.45
2018-12-25T01:37:57.110Z,102241.80
2018-12-25T01:40:31.019Z,102243.19
2018-12-25T01:43:04.930Z,102242.33
2018-12-25T01:45:39.053Z,102244.02
2018-12-25T01:48:13.037Z,102244.00
2018-12-25T01:50:46.706Z,102244.00
2018-12-25T01:53:20.610Z,102236.33
2018-12-25T01:55:54.720Z,102237.58
2018-12-25T01:58:28.749Z,102229.55
2018-12-25T02:01:03.193Z,102219.73
2018-12-25T02:03:37.145Z,102220.22
2018-12-25T02:06:11.018Z,102220.95
2018-12-25T02:08:44.688Z,102218.39
2018-12-25T02:11:18.723Z,102217.48
2018-12-25T02:13:52.550Z,102217.48
2018-12-25T02:16:26.536Z,102214.07
2018-12-25T02:19:00.509Z,102215.34
2018-12-25T02:21:36.234Z,102213.97
2018-12-25T02:24:09.915Z,102223.23
2018-12-25T02:26:43.946Z,102214.36
2018-12-25T02:29:18.957Z,102213.97
2018-12-25T02:31:53.713Z,102216.53
2018-12-25T02:34:27.743Z,102213.58
2018-12-25T02:37:01.741Z,102218.31
2018-12-25T02:39:35.874Z,102224.81
2018-12-25T02:42:10.078Z,102223.48
2018-12-25T02:44:45.121Z,102221.09
2018-12-25T02:47:19.326Z,102219.88
2018-12-25T02:49:53.442Z,102221.19
2018-12-25T02:52:27.402Z,102220.34
2018-12-25T02:55:04.076Z,102225.32
2018-12-25T02:57:40.333Z,102218.14
2018-12-25T03:00:14.560Z,102221.88
2018-12-25T03:02:48.790Z,102221.93
2018-12-25T03:05:22.648Z,102220.66
2018-12-25T03:07:56.963Z,102209.23
2018-12-25T03:10:30.980Z,102213.90
2018-12-25T03:13:05.203Z,102206.80
2018-12-25T03:15:39.352Z,102201.04
2018-12-25T03:18:13.569Z,102199.84
2018-12-25T03:20:47.430Z,102197.91
2018-12-25T03:23:21.805Z,102193.81
2018-12-25T03:25:55.970Z,102190.36
2018-12-25T03:28:30.091Z,102198.91
2018-12-25T03:31:04.041Z,102198.91
2018-12-25T03:33:38.097Z,102193.53
2018-12-25T03:36:12.214Z,102189.42
2018-12-25T03:38:46.433Z,102195.09
2018-12-25T03:41:20.613Z,102181.53
2018-12-25T03:43:54.394Z,102184.23
2018-12-25T03:46:28.222Z,102177.48
2018-12-25T03:49:02.169Z,102182.22
2018-12-25T03:51:36.108Z,102186.58
2018-12-25T03:54:10.454Z,102189.99
2018-12-25T03:56:46.123Z,102180.38
2018-12-25T03:59:20.186Z,102189.28
2018-12-25T04:01:54.426Z,102187.22
2018-12-25T04:04:28.732Z,102185.17
2018-12-25T04:07:02.610Z,102173.27
2018-12-25T04:09:37.139Z,102183.15
2018-12-25T04:12:12.628Z,102169.16
2018-12-25T04:14:47.800Z,102178.14
2018-12-25T04:17:21.780Z,102176.08
2018-12-25T04:19:55.940Z,102179.39
2018-12-25T04:22:30.020Z,102167.12
2018-12-25T04:25:05.687Z,102157.73
2018-12-25T04:27:41.727Z,102163.45
2018-12-25T04:30:15.738Z,102160.93
2018-12-25T04:32:49.675Z,102174.03
2018-12-25T04:35:24.092Z,102172.00
2018-12-25T04:37:58.602Z,102172.00
2018-12-25T04:40:34.296Z,102167.69
2018-12-25T04:43:08.301Z,102168.62
2018-12-25T04:45:42.626Z,102168.62
2018-12-25T04:48:18.003Z,102173.27
2018-12-25T04:50:53.061Z,102174.97
2018-12-25T04:53:26.911Z,102180.10
2018-12-25T04:56:00.534Z,102166.00
2018-12-25T04:58:34.359Z,102167.61
2018-12-25T05:01:09.007Z,102181.66
2018-12-25T05:03:43.130Z,102180.05
2018-12-25T05:06:17.634Z,102172.89
2018-12-25T05:08:54.249Z,102178.84
2018-12-25T05:11:29.771Z,102180.47
2018-12-25T05:14:03.869Z,102181.95
2018-12-25T05:16:39.354Z,102181.95
2018-12-25T05:19:13.612Z,102170.92
2018-12-25T05:21:47.306Z,102164.75
2018-12-25T05:24:21.525Z,102172.96
2018-12-25T05:26:55.619Z,102170.06
2018-12-25T05:29:30.966Z,102157.00
2018-12-25T05:32:05.420Z,102157.00
2018-12-25T05:34:39.353Z,102166.28
2018-12-25T05:37:14.390Z,102171.78
2018-12-25T05:39:48.306Z,102166.75
2018-12-25T05:42:22.292Z,102154.47
2018-12-25T05:44:56.121Z,102153.58
2018-12-25T05:47:30.111Z,102153.58
2018-12-25T05:50:04.305Z,102156.48
2018-12-25T05:52:38.701Z,102147.21
2018-12-25T05:55:14.057Z,102138.02
2018-12-25T05:57:48.311Z,102137.73
2018-12-25T06:00:22.843Z,102145.47
2018-12-25T06:02:56.682Z,102145.05
2018-12-25T06:05:30.872Z,102148.70
2018-12-25T06:08:04.861Z,102155.05
2018-12-25T06:10:40.476Z,102146.92
2018-12-25T06:13:15.731Z,102146.92
2018-12-25T06:15:49.754Z,102149.73
2018-12-25T06:18:23.984Z,102152.15
2018-12-25T06:20:57.972Z,102161.22
2018-12-25T06:23:31.992Z,102166.38
2018-12-25T06:26:06.276Z,102166.38
2018-12-25T06:28:40.587Z,102183.45
2018-12-25T06:31:14.681Z,102189.80
2018-12-25T06:33:49.004Z,102189.80
2018-12-25T06:36:23.180Z,102191.87
2018-12-25T06:38:58.988Z,102177.20
2018-12-25T06:41:35.336Z,102169.22
2018-12-25T06:44:09.305Z,102157.30
2018-12-25T06:46:43.508Z,102153.16
2018-12-25T06:49:18.896Z,102143.06
2018-12-25T06:51:52.979Z,102149.42
2018-12-25T06:54:27.110Z,102148.14
2018-12-25T06:57:00.817Z,102158.98
2018-12-25T06:59:35.060Z,102156.57
2018-12-25T07:02:11.800Z,102156.61
2018-12-25T07:04:46.040Z,102158.02
2018-12-25T07:07:21.415Z,102141.43
2018-12-25T07:09:56.207Z,102134.77
2018-12-25T07:12:30.489Z,102133.55
2018-12-25T07:15:04.392Z,102141.07
2018-12-25T07:17:38.622Z,102126.53
2018-12-25T07:20:14.147Z,102111.32
2018-12-25T07:22:48.002Z,102123.51
2018-12-25T07:25:23.653Z,102123.21
2018-12-25T07:27:57.636Z,102127.92
2018-12-25T07:30:31.836Z,102138.94
2018-12-25T07:33:05.754Z,102132.94
2018-12-25T07:35:41.406Z,102124.36
2018-12-25T07:38:15.399Z,102119.08
2018-12-25T07:40:49.685Z,102123.30
2018-12-25T07:43:25.201Z,102119.48
2018-12-25T07:45:59.504Z,102129.25
2018-12-25T07:48:36.583Z,102132.27
2018-12-25T07:51:10.623Z,102143.72
2018-12-25T07:53:45.267Z,102144.57
2018-12-25T07:56:19.456Z,102148.75
2018-12-25T07:58:53.557Z,102140.80
2018-12-25T08:01:27.551Z,102138.27
2018-12-25T08:04:01.543Z,102119.97
2018-12-25T08:06:35.726Z,102130.73
2018-12-25T08:09:09.612Z,102130.47
2018-12-25T08:11:43.673Z,102130.45
2018-12-25T08:14:17.558Z,102123.85
2018-12-25T08:16:51.626Z,102125.98
2018-12-25T08:19:25.575Z,102122.20
2018-12-25T08:21:59.665Z,102127.30
2018-12-25T08:24:33.579Z,102132.43
2018-12-25T08:27:07.938Z,102135.47
2018-12-25T08:29:41.930Z,102136.45
2018-12-25T08:32:15.829Z,102140.23
2018-12-25T08:34:49.666Z,102140.17
2018-12-25T08:37:23.918Z,102141.87
2018-12-25T08:39:58.836Z,102133.92
2018-12-25T08:42:34.451Z,102132.23
2018-12-25T08:45:08.505Z,102117.91
2018-12-25T08:47:42.541Z,102117.95
2018-12-25T08:50:16.585Z,102117.95
2018-12-25T08:52:50.577Z,102121.82
2018-12-25T08:55:26.140Z,102125.64
2018-12-25T08:58:00.373Z,102121.58
2018-12-25T09:00:34.361Z,102117.92
2018-12-25T09:03:08.500Z,102119.66
2018-12-25T09:05:42.449Z,102117.15
2018-12-25T09:08:16.809Z,102121.58
2018-12-25T09:10:50.751Z,102128.05
2018-12-25T09:13:24.728Z,102127.70
2018-12-25T09:15:58.580Z,102129.83
2018-12-25T09:18:32.622Z,102133.74
2018-12-25T09:21:06.675Z,102142.32
2018-12-25T09:23:40.787Z,102141.05
2018-12-25T09:26:16.153Z,102141.99
2018-12-25T09:28:50.601Z,102140.62
2018-12-25T09:31:24.645Z,102140.25
2018-12-25T09:33:59.131Z,102139.88
2018-12-25T09:36:33.050Z,102140.38
2018-12-25T09:39:08.279Z,102142.46
2018-12-25T09:41:42.247Z,102138.13
2018-12-25T09:44:16.405Z,102144.97
2018-12-25T09:46:50.412Z,102136.18
2018-12-25T09:49:24.442Z,102137.53
2018-12-25T09:51:58.581Z,102125.98
2018-12-25T09:54:34.154Z,102121.31
2018-12-25T09:57:08.453Z,102123.48
2018-12-25T09:59:42.665Z,102124.38
2018-12-25T10:02:16.771Z,102124.33
2018-12-25T10:04:50.824Z,102127.69
2018-12-25T10:07:24.464Z,102118.84
2018-12-25T10:09:59.287Z,102119.27
2018-12-25T10:12:33.245Z,102128.27
2018-12-25T10:15:07.654Z,102127.89
2018-12-25T10:17:41.762Z,102126.30
2018-12-25T10:20:16.158Z,102123.80
2018-12-25T10:22:49.972Z,102112.74
2018-12-25T10:25:25.031Z,102111.52
2018-12-25T10:27:59.031Z,102113.70
2018-12-25T10:30:33.403Z,102103.97
2018-12-25T10:33:07.218Z,102108.18
2018-12-25T10:35:41.489Z,102112.92
2018-12-25T10:38:16.864Z,102112.07
2018-12-25T10:40:54.030Z,102105.66
2018-12-25T10:43:28.994Z,102113.31
2018-12-25T10:46:03.114Z,102111.58
2018-12-25T10:48:37.263Z,102099.30
2018-12-25T10:51:13.383Z,102105.27
2018-12-25T10:53:47.239Z,102107.92
2018-12-25T10:56:22.429Z,102110.34
2018-12-25T10:58:56.451Z,102108.80
2018-12-25T11:01:30.570Z,102112.63
2018-12-25T11:04:04.623Z,102108.80
2018-12-25T11:06:38.677Z,102105.80
2018-12-25T11:09:14.003Z,102099.39
2018-12-25T11:11:48.019Z,102107.56
2018-12-25T11:14:22.130Z,102102.95
2018-12-25T11:16:56.131Z,102099.97
2018-12-25T11:19:30.436Z,102105.04
2018-12-25T11:22:05.094Z,102101.73
2018-12-25T11:24:39.224Z,102100.36
2018-12-25T11:27:13.042Z,102106.41
2018-12-25T11:29:47.076Z,102098.57
2018-12-25T11:32:20.903Z,102095.63
2018-12-25T11:34:55.238Z,102091.05
2018-12-25T11:37:29.198Z,102089.82
2018-12-25T11:40:03.239Z,102085.20
2018-12-25T11:42:37.279Z,102085.66
2018-12-25T11:45:11.402Z,102078.88
2018-12-25T11:47:45.680Z,102065.74
2018-12-25T11:50:20.038Z,102078.50
2018-12-25T11:52:55.495Z,102083.95
2018-12-25T11:55:29.374Z,102071.99
2018-12-25T11:58:03.659Z,102073.34
2018-12-25T12:00:37.692Z,102070.81
2018-12-25T12:03:12.283Z,102076.80
2018-12-25T12:05:47.309Z,102070.02
2018-12-25T12:08:21.569Z,102084.42
2018-12-25T12:10:55.875Z,102080.92
2018-12-25T12:13:30.555Z,102087.75
2018-12-25T12:16:05.763Z,102080.09
2018-12-25T12:18:40.187Z,102091.61
2018-12-25T12:21:18.672Z,102092.43
2018-12-25T12:23:53.710Z,102083.10
2018-12-25T12:26:27.669Z,102082.70
2018-12-25T12:29:02.280Z,102091.16
2018-12-25T12:31:37.592Z,102092.38
2018-12-25T12:34:16.347Z,102088.43
2018-12-25T12:36:50.272Z,102086.42
2018-12-25T12:39:25.819Z,102089.88
2018-12-25T12:42:00.149Z,102080.95
2018-12-25T12:44:34.459Z,102089.05
2018-12-25T12:47:08.649Z,102094.61
2018-12-25T12:49:42.534Z,102094.98
2018-12-25T12:55:10.426Z,102087.81
2018-12-25T12:57:44.738Z,102087.70
2018-12-25T13:00:19.188Z,102086.05
2018-12-25T13:02:53.371Z,102077.13
2018-12-25T13:05:30.359Z,102077.44
2018-12-25T13:08:04.854Z,102081.27
2018-12-25T13:10:38.989Z,102081.74
2018-12-25T13:13:13.124Z,102083.78
2018-12-25T13:15:47.173Z,102087.24
2018-12-25T13:18:21.225Z,102095.30
2018-12-25T13:20:55.165Z,102093.98
2018-12-25T13:23:29.108Z,102095.23
2018-12-25T13:26:03.544Z,102102.09
2018-12-25T13:28:38.043Z,102090.50
2018-12-25T13:31:15.523Z,102097.36
2018-12-25T13:33:49.339Z,102098.33
2018-12-25T13:36:23.320Z,102102.13
2018-12-25T13:38:58.203Z,102098.18
2018-12-25T13:41:34.632Z,102100.39
2018-12-25T13:44:09.073Z,102105.47
2018-12-25T13:46:51.449Z,102112.23
2018-12-25T13:49:20.599Z,102120.31
2018-12-25T13:51:57.001Z,102116.09
2018-12-25T13:54:31.276Z,102118.22
2018-12-25T13:57:05.493Z,102114.33
2018-12-25T13:59:39.696Z,102113.52
2018-12-25T14:02:13.866Z,102119.03
2018-12-25T14:04:48.832Z,102113.09
2018-12-25T14:07:22.998Z,102100.34
2018-12-25T14:09:57.589Z,102096.91
2018-12-25T14:12:31.730Z,102101.25
2018-12-25T14:15:06.407Z,102098.63
2018-12-25T14:17:40.191Z,102097.42
2018-12-25T14:20:13.896Z,102096.91
2018-12-25T14:22:47.625Z,102090.55
2018-12-25T14:25:21.673Z,102098.97
2018-12-25T14:27:55.366Z,102099.91
2018-12-25T14:30:29.216Z,102103.77
2018-12-25T14:33:02.926Z,102102.39
2018-12-25T14:35:36.688Z,102109.75
2018-12-25T14:38:10.634Z,102116.52
2018-12-25T14:40:44.441Z,102111.75
2018-12-25T14:43:18.277Z,102119.89
2018-12-25T14:45:52.033Z,102116.78
2018-12-25T14:48:25.784Z,102114.75
2018-12-25T14:50:59.660Z,102121.98
2018-12-25T14:53:33.396Z,102121.42
2018-12-25T14:56:07.324Z,102115.08
2018-12-25T14:58:41.127Z,102124.07
2018-12-25T15:01:14.951Z,102128.36
2018-12-25T15:03:48.652Z,102121.16
2018-12-25T15:06:22.321Z,102119.89
2018-12-25T15:08:55.989Z,102126.66
2018-12-25T15:11:29.708Z,102120.31
2018-12-25T15:14:03.542Z,102113.88
2018-12-25T15:16:37.368Z,102115.41
2018-12-25T15:19:10.979Z,102110.73
2018-12-25T15:21:44.875Z,102112.50
2018-12-25T15:24:18.504Z,102107.40
2018-12-25T15:26:52.236Z,102104.91
2018-12-25T15:29:25.932Z,102104.91
2018-12-25T15:31:59.653Z,102106.91
2018-12-25T15:34:33.476Z,102105.20
2018-12-25T15:37:07.238Z,102102.62
2018-12-25T15:39:41.604Z,102102.16
2018-12-25T15:42:15.339Z,102105.03
2018-12-25T15:44:49.259Z,102098.27
2018-12-25T15:47:23.139Z,102092.00
2018-12-25T15:49:57.136Z,102100.04
2018-12-25T15:52:31.180Z,102100.85
2018-12-25T15:55:06.085Z,102100.92
2018-12-25T15:57:39.969Z,102103.51
2018-12-25T16:00:15.556Z,102111.08
2018-12-25T16:02:49.219Z,102099.64
2018-12-25T16:05:23.084Z,102107.33
2018-12-25T16:07:56.865Z,102108.53
2018-12-25T16:10:32.156Z,102104.67
2018-12-25T16:13:05.827Z,102107.33
2018-12-25T16:15:40.048Z,102113.63
2018-12-25T16:18:13.814Z,102106.38
2018-12-25T16:20:49.405Z,102116.53
2018-12-25T16:23:23.016Z,102105.52
2018-12-25T16:25:56.690Z,102102.09
2018-12-25T16:28:30.762Z,102103.02
2018-12-25T16:31:05.369Z,102103.08
2018-12-25T16:33:39.116Z,102102.20
2018-12-25T16:36:13.005Z,102100.53
2018-12-25T16:38:47.043Z,102096.60
2018-12-25T16:41:20.914Z,102101.73
2018-12-25T16:43:54.577Z,102100.46
2018-12-25T16:46:28.749Z,102091.54
2018-12-25T16:49:02.498Z,102088.14
2018-12-25T16:51:36.219Z,102096.99
2018-12-25T16:54:09.966Z,102091.78
2018-12-25T16:56:44.017Z,102087.25
2018-12-25T16:59:17.919Z,102086.94
2018-12-25T17:01:52.009Z,102077.98
2018-12-25T17:04:25.739Z,102090.55
2018-12-25T17:06:59.473Z,102085.38
2018-12-25T17:09:33.109Z,102082.05
2018-12-25T17:12:06.949Z,102083.29
2018-12-25T17:14:40.613Z,102083.75
2018-12-25T17:17:14.597Z,102086.34
2018-12-25T17:19:48.703Z,102084.10
2018-12-25T17:22:24.009Z,102087.58
2018-12-25T17:24:59.784Z,102091.75
2018-12-25T17:27:33.721Z,102089.27
2018-12-25T17:30:08.972Z,102084.88
2018-12-25T17:32:42.842Z,102083.25
2018-12-25T17:35:16.606Z,102091.40
2018-12-25T17:37:50.364Z,102087.92
2018-12-25T17:40:24.066Z,102081.20
2018-12-25T17:42:58.788Z,102082.97
2018-12-25T17:45:32.782Z,102081.70
2018-12-25T17:48:06.674Z,102086.83
2018-12-25T17:50:40.702Z,102084.25
2018-12-25T17:53:16.183Z,102085.91
2018-12-25T17:55:50.083Z,102095.36
2018-12-25T17:58:24.288Z,102088.95
2018-12-25T18:00:58.279Z,102091.89
2018-12-25T18:03:32.234Z,102098.27
2018-12-25T18:06:06.911Z,102097.38
2018-12-25T18:08:40.727Z,102102.13
2018-12-25T18:11:14.563Z,102103.86
2018-12-25T18:13:48.373Z,102102.16
2018-12-25T18:16:22.167Z,102104.64
2018-12-25T18:18:56.097Z,102106.69
2018-12-25T18:21:29.855Z,102107.92
2018-12-25T18:24:03.638Z,102106.30
2018-12-25T18:26:37.312Z,102113.59
2018-12-25T18:29:11.038Z,102109.70
2018-12-25T18:31:44.874Z,102113.83
2018-12-25T18:34:18.545Z,102109.20
2018-12-25T18:36:52.430Z,102113.37
2018-12-25T18:39:26.100Z,102112.52
2018-12-25T18:41:59.702Z,102109.16
2018-12-25T18:44:33.445Z,102109.97
2018-12-25T18:47:07.077Z,102111.36
2018-12-25T18:49:41.167Z,102106.73
2018-12-25T18:52:14.858Z,102106.38
2018-12-25T18:54:48.749Z,102108.35
2018-12-25T18:57:22.378Z,102108.23
2018-12-25T18:59:56.436Z,102107.80
2018-12-25T19:02:30.029Z,102107.92
2018-12-25T19:05:03.743Z,102110.12
2018-12-25T19:07:37.327Z,102108.35
2018-12-25T19:10:11.377Z,102112.74
2018-12-25T19:12:45.069Z,102109.27
2018-12-25T19:15:22.911Z,102105.88
2018-12-25T19:17:56.632Z,102097.42
2018-12-25T19:20:30.352Z,102093.52
2018-12-25T19:23:03.990Z,102090.66
2018-12-25T19:25:37.901Z,102089.34
2018-12-25T19:28:11.632Z,102088.88
2018-12-25T19:30:45.482Z,102079.08
2018-12-25T19:33:19.178Z,102085.41
2018-12-25T19:35:52.914Z,102086.30
2018-12-25T19:38:26.987Z,102085.02
2018-12-25T19:41:00.995Z,102088.50
2018-12-25T19:43:34.911Z,102087.19
2018-12-25T19:46:08.617Z,102081.63
2018-12-25T19:48:42.257Z,102087.53
2018-12-25T19:51:15.959Z,102088.89
2018-12-25T19:53:49.706Z,102088.03
2018-12-25T19:56:23.581Z,102086.30
2018-12-25T19:58:57.191Z,102085.91
2018-12-25T20:01:31.556Z,102083.86
2018-12-25T20:04:08.039Z,102087.75
2018-12-25T20:06:56.403Z,102080.00
2018-12-25T20:10:00.791Z,102075.36
2018-12-25T20:13:09.769Z,102071.14
2018-12-25T20:16:04.800Z,102072.88
2018-12-25T20:18:47.330Z,102074.97
2018-12-25T20:22:01.126Z,102071.18
2018-12-25T20:25:30.021Z,102074.91
2018-12-25T20:28:18.638Z,102069.45
2018-12-25T20:31:38.094Z,102066.50
2018-12-25T20:34:27.061Z,102062.58
2018-12-25T20:37:06.868Z,102063.47
2018-12-25T20:39:58.988Z,102057.52
2018-12-25T20:43:02.782Z,102054.52
2018-12-25T20:45:56.419Z,102041.02
2018-12-25T20:48:33.092Z,102056.28
2018-12-25T20:51:31.084Z,102052.00
2018-12-25T20:54:29.009Z,102049.88
2018-12-25T20:57:14.499Z,102057.09
2018-12-25T21:00:00.553Z,102055.39
2018-12-25T21:03:06.283Z,102063.47
2018-12-25T21:06:08.914Z,102065.62
2018-12-25T21:08:51.437Z,102065.48
2018-12-25T21:11:51.131Z,102068.11
2018-12-25T21:14:30.855Z,102066.27
2018-12-25T21:17:33.528Z,102072.25
2018-12-25T21:20:28.544Z,102068.50
2018-12-25T21:23:38.363Z,102071.82
2018-12-25T21:26:48.708Z,102060.00
2018-12-25T21:29:22.387Z,102067.50
2018-12-25T21:31:56.111Z,102065.84
2018-12-25T21:34:29.826Z,102062.80
2018-12-25T21:37:03.441Z,102059.89
2018-12-25T21:39:38.037Z,102067.42
2018-12-25T21:42:13.798Z,102064.03
2018-12-25T21:44:48.303Z,102067.00
2018-12-25T21:47:23.065Z,102063.25
2018-12-25T21:49:57.210Z,102062.41
2018-12-25T21:52:31.115Z,102058.23
2018-12-25T21:55:07.167Z,102059.89
2018-12-25T21:57:40.946Z,102059.43
2018-12-25T22:00:15.105Z,102057.34
2018-12-25T22:02:49.212Z,102057.73
2018-12-25T22:05:23.687Z,102060.28
2018-12-25T22:07:57.749Z,102054.77
2018-12-25T22:10:32.153Z,102058.16
2018-12-25T22:13:06.165Z,102051.40
2018-12-25T22:15:40.195Z,102054.80
2018-12-25T22:18:14.092Z,102049.63
2018-12-25T22:20:48.071Z,102049.59
2018-12-25T22:23:22.136Z,102049.63
2018-12-25T22:25:56.841Z,102047.22
2018-12-25T22:28:30.895Z,102048.03
2018-12-25T22:31:05.110Z,102044.67
2018-12-25T22:33:39.108Z,102049.77
2018-12-25T22:36:13.142Z,102050.23
2018-12-25T22:38:47.073Z,102049.70
2018-12-25T22:41:22.684Z,102051.47
2018-12-25T22:43:57.158Z,102043.33
2018-12-25T22:46:31.357Z,102045.56
2018-12-25T22:49:07.208Z,102050.63
2018-12-25T22:51:41.162Z,102043.47
2018-12-25T22:54:15.322Z,102045.98
2018-12-25T22:56:49.388Z,102039.97
2018-12-25T22:59:23.151Z,102034.97
2018-12-25T23:01:56.766Z,102033.70
2018-12-25T23:04:30.713Z,102032.84
2018-12-25T23:07:04.611Z,102032.03
2018-12-25T23:09:38.530Z,102024.84
2018-12-25T23:12:13.782Z,102023.53
2018-12-25T23:14:47.875Z,102034.16
2018-12-25T23:17:21.832Z,102034.13
2018-12-25T23:19:55.765Z,102032.00
2018-12-25T23:22:29.896Z,102038.77
2018-12-25T23:25:03.979Z,102030.20
2018-12-25T23:27:38.026Z,102031.47
2018-12-25T23:30:12.299Z,102028.59
2018-12-25T23:32:46.289Z,102021.77
2018-12-25T23:35:21.985Z,102034.05
2018-12-25T23:37:56.745Z,102024.77
2018-12-25T23:40:30.809Z,102029.41
2018-12-25T23:43:05.333Z,102024.77
2018-12-25T23:45:39.499Z,102020.92
2018-12-25T23:48:13.845Z,102017.09
2018-12-25T23:50:48.102Z,102024.77
2018-12-25T23:53:22.071Z,102027.78
2018-12-25T23:55:56.136Z,102025.66
2018-12-25T23:58:30.193Z,102030.39
